createdAt,value
2022-07-26T00:00:12.642Z,4.95
2022-07-26T00:02:39.942Z,5.30
2022-07-26T00:05:14.790Z,5.43
2022-07-26T00:07:41.814Z,5.55
2022-07-26T00:10:08.741Z,4.57
2022-07-26T00:12:35.701Z,5.53
2022-07-26T00:15:02.707Z,4.60
2022-07-26T00:17:29.350Z,4.82
2022-07-26T00:19:56.057Z,4.95
2022-07-26T00:22:35.186Z,5.30
2022-07-26T00:25:04.361Z,5.70
2022-07-26T00:27:31.156Z,5.35
2022-07-26T00:29:57.821Z,6.45
2022-07-26T00:32:24.638Z,5.55
2022-07-26T00:34:52.173Z,6.50
2022-07-26T00:37:20.766Z,5.43
2022-07-26T00:39:48.411Z,6.25
2022-07-26T00:42:15.344Z,5.53
2022-07-26T00:44:45.263Z,5.75
2022-07-26T00:47:12.728Z,5.63
2022-07-26T00:49:39.841Z,5.88
2022-07-26T00:52:07.764Z,5.93
2022-07-26T00:54:34.531Z,5.90
2022-07-26T00:57:01.352Z,6.00
2022-07-26T00:59:28.394Z,5.90
2022-07-26T01:01:55.693Z,6.15
2022-07-26T01:04:22.722Z,4.82
2022-07-26T01:06:49.988Z,5.63
2022-07-26T01:09:16.920Z,4.85
2022-07-26T01:11:43.667Z,5.90
2022-07-26T01:14:10.939Z,6.13
2022-07-26T01:16:38.224Z,4.93
2022-07-26T01:19:05.037Z,5.35
2022-07-26T01:21:33.241Z,5.65
2022-07-26T01:24:00.147Z,5.57
2022-07-26T01:26:26.859Z,4.97
2022-07-26T01:28:53.581Z,4.20
2022-07-26T01:31:20.460Z,5.38
2022-07-26T01:33:47.303Z,4.10
2022-07-26T01:36:13.990Z,4.22
2022-07-26T01:38:41.601Z,4.13
2022-07-26T01:41:08.567Z,4.60
2022-07-26T01:43:35.937Z,3.88
2022-07-26T01:46:03.796Z,4.10
2022-07-26T01:48:31.077Z,4.38
2022-07-26T01:50:58.070Z,4.57
2022-07-26T01:53:24.835Z,4.15
2022-07-26T01:55:51.569Z,3.97
2022-07-26T01:58:18.506Z,3.80
2022-07-26T02:00:45.267Z,3.85
2022-07-26T02:03:12.129Z,3.60
2022-07-26T02:05:38.814Z,3.80
2022-07-26T02:08:05.859Z,4.40
2022-07-26T02:10:52.319Z,3.95
2022-07-26T02:13:18.997Z,4.07
2022-07-26T02:15:45.790Z,3.88
2022-07-26T02:18:12.528Z,3.88
2022-07-26T02:20:39.402Z,3.53
2022-07-26T02:23:06.515Z,4.00
2022-07-26T02:25:33.455Z,3.67
2022-07-26T02:28:01.528Z,4.53
2022-07-26T02:30:29.043Z,3.58
2022-07-26T02:32:55.747Z,3.67
2022-07-26T02:35:22.611Z,3.70
2022-07-26T02:37:49.308Z,3.58
2022-07-26T02:40:19.392Z,4.03
2022-07-26T02:42:46.499Z,4.10
2022-07-26T02:45:13.215Z,4.78
2022-07-26T02:47:52.848Z,3.65
2022-07-26T02:50:21.258Z,3.90
2022-07-26T02:52:48.412Z,3.95
2022-07-26T02:55:16.732Z,3.90
2022-07-26T02:57:45.541Z,3.20
2022-07-26T03:00:16.537Z,3.50
2022-07-26T03:02:43.557Z,3.97
2022-07-26T03:05:10.971Z,3.00
2022-07-26T03:07:37.939Z,3.53
2022-07-26T03:10:05.334Z,4.28
2022-07-26T03:12:32.138Z,3.67
2022-07-26T03:14:58.898Z,3.42
2022-07-26T03:17:25.578Z,3.30
2022-07-26T03:19:52.648Z,3.28
2022-07-26T03:22:19.442Z,4.65
2022-07-26T03:24:46.144Z,3.90
2022-07-26T03:27:12.875Z,3.10
2022-07-26T03:29:39.518Z,3.88
2022-07-26T03:32:06.623Z,4.18
2022-07-26T03:34:33.452Z,3.45
2022-07-26T03:37:00.115Z,3.35
2022-07-26T03:39:26.781Z,3.60
2022-07-26T03:41:53.421Z,3.97
2022-07-26T03:44:20.120Z,3.80
2022-07-26T03:46:46.947Z,4.05
2022-07-26T03:49:16.964Z,3.85
2022-07-26T03:51:44.216Z,3.38
2022-07-26T03:54:11.418Z,3.88
2022-07-26T03:56:38.912Z,3.63
2022-07-26T03:59:08.384Z,3.65
2022-07-26T04:01:36.147Z,4.00
2022-07-26T04:04:03.510Z,4.18
2022-07-26T04:06:30.187Z,3.63
2022-07-26T04:08:57.058Z,4.00
2022-07-26T04:11:27.673Z,4.03
2022-07-26T04:13:55.914Z,4.47
2022-07-26T04:16:22.896Z,4.15
2022-07-26T04:18:49.650Z,3.75
2022-07-26T04:21:16.809Z,3.80
2022-07-26T04:23:47.778Z,4.05
2022-07-26T04:26:17.561Z,4.57
2022-07-26T04:28:44.212Z,3.67
2022-07-26T04:31:11.006Z,3.85
2022-07-26T04:33:37.798Z,3.70
2022-07-26T04:36:04.884Z,3.78
2022-07-26T04:38:46.747Z,4.25
2022-07-26T04:41:13.821Z,4.47
2022-07-26T04:43:40.513Z,3.95
2022-07-26T04:46:07.354Z,5.07
2022-07-26T04:48:34.213Z,3.67
2022-07-26T04:51:01.618Z,3.53
2022-07-26T04:53:28.278Z,3.83
2022-07-26T04:55:54.955Z,3.90
2022-07-26T04:58:21.598Z,3.97
2022-07-26T05:01:08.876Z,4.00
2022-07-26T05:03:35.055Z,3.75
2022-07-26T05:06:01.696Z,3.50
2022-07-26T05:08:28.292Z,3.38
2022-07-26T05:10:56.104Z,4.28
2022-07-26T05:13:23.214Z,3.60
2022-07-26T05:15:56.942Z,4.72
2022-07-26T05:18:23.587Z,3.92
2022-07-26T05:20:51.412Z,4.07
2022-07-26T05:23:18.356Z,4.00
2022-07-26T05:25:45.012Z,3.65
2022-07-26T05:28:11.701Z,4.10
2022-07-26T05:30:38.473Z,4.00
2022-07-26T05:33:05.346Z,4.05
2022-07-26T05:35:32.017Z,3.95
2022-07-26T05:37:59.227Z,4.03
2022-07-26T05:40:26.002Z,3.75
2022-07-26T05:42:52.740Z,3.70
2022-07-26T05:45:19.474Z,3.58
2022-07-26T05:47:49.764Z,3.20
2022-07-26T05:50:16.419Z,3.22
2022-07-26T05:52:43.149Z,3.85
2022-07-26T05:55:10.047Z,4.03
2022-07-26T05:57:36.810Z,3.55
2022-07-26T06:00:05.346Z,3.83
2022-07-26T06:02:32.787Z,4.00
2022-07-26T06:04:59.502Z,4.03
2022-07-26T06:07:26.163Z,4.40
2022-07-26T06:09:52.866Z,4.10
2022-07-26T06:12:19.650Z,4.30
2022-07-26T06:14:46.340Z,4.03
2022-07-26T06:17:13.151Z,4.20
2022-07-26T06:19:43.031Z,3.90
2022-07-26T06:22:12.423Z,4.10
2022-07-26T06:24:39.087Z,4.15
2022-07-26T06:27:06.066Z,3.95
2022-07-26T06:29:33.447Z,4.22
2022-07-26T06:32:00.368Z,4.25
2022-07-26T06:34:27.287Z,4.15
2022-07-26T06:36:53.961Z,3.90
2022-07-26T06:39:20.726Z,4.13
2022-07-26T06:41:47.525Z,4.30
2022-07-26T06:44:14.209Z,3.97
2022-07-26T06:46:40.848Z,5.03
2022-07-26T06:49:07.637Z,4.60
2022-07-26T06:51:34.595Z,5.35
2022-07-26T06:54:01.650Z,4.88
2022-07-26T06:56:28.469Z,4.25
2022-07-26T06:58:56.278Z,5.22
2022-07-26T07:01:55.550Z,5.25
2022-07-26T07:04:10.048Z,4.95
2022-07-26T07:06:37.027Z,4.82
2022-07-26T07:09:03.825Z,5.15
2022-07-26T07:11:33.315Z,4.65
2022-07-26T07:14:03.022Z,3.58
2022-07-26T07:16:29.821Z,3.70
2022-07-26T07:18:56.501Z,3.70
2022-07-26T07:21:23.136Z,3.78
2022-07-26T07:23:49.827Z,3.90
2022-07-26T07:26:16.762Z,3.97
2022-07-26T07:28:43.392Z,3.85
2022-07-26T07:31:10.192Z,3.63
2022-07-26T07:33:52.750Z,4.20
2022-07-26T07:36:20.988Z,3.93
2022-07-26T07:38:49.109Z,3.80
2022-07-26T07:41:16.354Z,3.80
2022-07-26T07:43:43.018Z,3.83
2022-07-26T07:46:09.762Z,4.90
2022-07-26T07:48:38.722Z,3.90
2022-07-26T07:51:08.825Z,4.47
2022-07-26T07:53:35.557Z,4.40
2022-07-26T07:56:02.557Z,4.85
2022-07-26T07:58:29.193Z,3.70
2022-07-26T08:00:55.980Z,3.83
2022-07-26T08:03:22.617Z,4.85
2022-07-26T08:05:50.570Z,3.60
2022-07-26T08:08:18.910Z,4.22
2022-07-26T08:10:52.294Z,3.65
2022-07-26T08:13:21.392Z,3.97
2022-07-26T08:15:52.881Z,3.45
2022-07-26T08:18:22.562Z,4.20
2022-07-26T08:20:51.095Z,3.85
2022-07-26T08:23:18.094Z,3.33
2022-07-26T08:25:55.753Z,3.83
2022-07-26T08:31:10.478Z,3.33
2022-07-26T08:33:37.450Z,3.65
2022-07-26T08:36:08.017Z,3.55
2022-07-26T08:38:34.832Z,3.47
2022-07-26T08:41:01.481Z,3.28
2022-07-26T08:43:29.189Z,3.58
2022-07-26T08:46:03.062Z,3.80
2022-07-26T08:50:56.952Z,4.03
2022-07-26T08:53:24.307Z,3.75
2022-07-26T08:56:06.816Z,3.20
2022-07-26T08:58:35.753Z,3.70
2022-07-26T09:01:08.106Z,3.47
2022-07-26T09:03:37.918Z,3.72
2022-07-26T09:06:18.147Z,3.35
2022-07-26T09:08:46.922Z,3.25
2022-07-26T09:11:32.342Z,3.67
2022-07-26T09:14:06.375Z,3.53
2022-07-26T09:16:37.304Z,2.95
2022-07-26T09:19:21.312Z,4.20
2022-07-26T09:21:48.201Z,2.97
2022-07-26T09:24:31.284Z,3.25
2022-07-26T09:26:59.869Z,2.90
2022-07-26T09:29:28.515Z,2.80
2022-07-26T09:32:15.375Z,2.97
2022-07-26T09:34:52.597Z,3.22
2022-07-26T09:37:33.708Z,3.28
2022-07-26T09:40:04.128Z,2.88
2022-07-26T09:42:30.958Z,3.08
2022-07-26T09:44:58.576Z,2.70
2022-07-26T09:47:43.153Z,3.25
2022-07-26T09:50:31.532Z,3.38
2022-07-26T09:53:13.279Z,3.08
2022-07-26T09:55:46.027Z,3.25
2022-07-26T09:58:14.608Z,3.42
2022-07-26T10:00:42.133Z,2.80
2022-07-26T10:03:08.992Z,2.90
2022-07-26T10:05:37.027Z,2.80
2022-07-26T10:08:06.066Z,2.97
2022-07-26T10:10:35.665Z,2.90
2022-07-26T10:13:03.143Z,2.80
2022-07-26T10:15:49.848Z,2.63
2022-07-26T10:18:35.419Z,2.60
2022-07-26T10:21:18.927Z,2.75
2022-07-26T10:23:59.252Z,2.83
2022-07-26T10:26:32.164Z,2.40
2022-07-26T10:29:17.379Z,3.28
2022-07-26T10:31:51.713Z,2.40
2022-07-26T10:34:33.934Z,2.53
2022-07-26T10:37:02.712Z,2.17
2022-07-26T10:39:29.858Z,2.72
2022-07-26T10:42:05.139Z,2.13
2022-07-26T10:44:33.379Z,2.42
2022-07-26T10:47:09.538Z,2.20
2022-07-26T10:49:36.700Z,2.40
2022-07-26T10:52:14.913Z,2.20
2022-07-26T10:55:00.266Z,2.08
2022-07-26T10:57:34.788Z,2.15
2022-07-26T11:00:02.356Z,2.38
2022-07-26T11:02:32.317Z,1.83
2022-07-26T11:05:00.880Z,2.22
2022-07-26T11:07:28.509Z,2.30
2022-07-26T11:09:59.062Z,2.42
2022-07-26T11:12:26.507Z,1.85
2022-07-26T11:14:54.309Z,1.90
2022-07-26T11:17:29.888Z,1.88
2022-07-26T11:19:57.520Z,1.83
2022-07-26T11:22:36.973Z,2.03
2022-07-26T11:25:04.736Z,1.90
2022-07-26T11:27:31.917Z,1.67
2022-07-26T11:30:04.053Z,2.10
2022-07-26T11:32:31.222Z,1.85
2022-07-26T11:35:02.956Z,2.25
2022-07-26T11:37:30.077Z,1.90
2022-07-26T11:39:57.349Z,1.73
2022-07-26T11:42:24.577Z,1.95
2022-07-26T11:44:53.664Z,1.77
2022-07-26T11:47:25.527Z,1.98
2022-07-26T11:50:14.019Z,2.33
2022-07-26T11:52:41.001Z,2.30
2022-07-26T11:55:08.574Z,2.20
2022-07-26T11:57:35.301Z,2.35
2022-07-26T12:00:02.499Z,2.45
2022-07-26T12:02:30.505Z,2.80
2022-07-26T12:05:16.364Z,2.35
2022-07-26T12:08:00.972Z,2.40
2022-07-26T12:10:28.140Z,2.33
2022-07-26T12:13:15.996Z,2.42
2022-07-26T12:15:51.294Z,2.60
2022-07-26T12:18:26.213Z,2.50
2022-07-26T12:21:05.779Z,2.30
2022-07-26T12:23:45.198Z,2.35
2022-07-26T12:26:30.719Z,2.60
2022-07-26T12:29:18.626Z,2.30
2022-07-26T12:31:46.372Z,2.70
2022-07-26T12:34:20.716Z,2.15
2022-07-26T12:36:47.557Z,2.05
2022-07-26T12:39:24.084Z,2.75
2022-07-26T12:41:54.696Z,1.92
2022-07-26T12:44:23.007Z,2.20
2022-07-26T12:46:49.828Z,2.50
2022-07-26T12:49:17.147Z,2.47
2022-07-26T12:51:44.855Z,2.85
2022-07-26T12:54:11.917Z,2.05
2022-07-26T12:56:38.820Z,2.50
2022-07-26T12:59:06.133Z,2.13
2022-07-26T13:01:33.037Z,2.15
2022-07-26T13:04:00.414Z,2.50
2022-07-26T13:06:27.274Z,2.85
2022-07-26T13:08:54.038Z,2.45
2022-07-26T13:11:20.892Z,2.20
2022-07-26T13:13:47.647Z,2.30
2022-07-26T13:16:14.317Z,2.40
2022-07-26T13:18:41.001Z,2.28
2022-07-26T13:21:07.886Z,1.95
2022-07-26T13:23:35.654Z,2.38
2022-07-26T13:26:03.479Z,1.92
2022-07-26T13:28:30.821Z,2.28
2022-07-26T13:30:57.727Z,2.20
2022-07-26T13:33:24.444Z,2.40
2022-07-26T13:35:51.109Z,2.78
2022-07-26T13:38:19.683Z,2.95
2022-07-26T13:40:46.378Z,3.25
2022-07-26T13:43:13.141Z,2.10
2022-07-26T13:45:40.149Z,2.50
2022-07-26T13:48:07.347Z,2.40
2022-07-26T13:50:34.257Z,2.20
2022-07-26T13:53:01.092Z,2.17
2022-07-26T13:55:27.900Z,2.70
2022-07-26T13:57:57.524Z,2.22
2022-07-26T14:00:29.253Z,2.40
2022-07-26T14:02:58.502Z,2.15
2022-07-26T14:05:26.454Z,2.40
2022-07-26T14:07:54.002Z,2.58
2022-07-26T14:10:21.879Z,2.47
2022-07-26T14:12:48.962Z,2.60
2022-07-26T14:15:21.679Z,2.65
2022-07-26T14:20:17.425Z,1.88
2022-07-26T14:22:44.734Z,1.90
2022-07-26T14:25:11.731Z,2.50
2022-07-26T14:27:38.564Z,2.45
2022-07-26T14:30:06.109Z,2.47
2022-07-26T14:32:32.916Z,2.60
2022-07-26T14:34:59.542Z,2.08
2022-07-26T14:37:42.765Z,2.33
2022-07-26T14:40:13.142Z,2.70
2022-07-26T14:42:40.044Z,2.10
2022-07-26T14:45:07.771Z,2.40
2022-07-26T14:47:34.429Z,2.65
2022-07-26T14:50:06.271Z,2.28
2022-07-26T14:52:33.862Z,2.35
2022-07-26T14:55:00.546Z,2.22
2022-07-26T14:57:27.368Z,1.98
2022-07-26T14:59:54.019Z,2.80
2022-07-26T15:02:20.856Z,3.03
2022-07-26T15:04:47.639Z,2.42
2022-07-26T15:07:14.438Z,2.50
2022-07-26T15:09:41.220Z,2.15
2022-07-26T15:12:08.173Z,2.30
2022-07-26T15:14:36.959Z,2.60
2022-07-26T15:17:03.787Z,2.38
2022-07-26T15:19:30.492Z,2.50
2022-07-26T15:21:58.835Z,2.05
2022-07-26T15:24:27.022Z,2.50
2022-07-26T15:26:53.820Z,2.58
2022-07-26T15:29:20.541Z,2.10
2022-07-26T15:31:48.520Z,2.20
2022-07-26T15:34:15.747Z,2.00
2022-07-26T15:36:42.834Z,2.45
2022-07-26T15:39:18.151Z,2.08
2022-07-26T15:41:47.177Z,3.08
2022-07-26T15:44:17.163Z,2.83
2022-07-26T15:46:45.819Z,2.58
2022-07-26T15:49:15.860Z,2.55
2022-07-26T15:51:43.408Z,2.60
2022-07-26T15:54:12.640Z,2.05
2022-07-26T15:56:39.993Z,2.70
2022-07-26T15:59:07.202Z,2.58
2022-07-26T16:01:34.702Z,2.70
2022-07-26T16:04:01.532Z,2.40
2022-07-26T16:06:28.478Z,2.25
2022-07-26T16:09:15.154Z,2.33
2022-07-26T16:11:41.824Z,2.15
2022-07-26T16:14:08.635Z,2.35
2022-07-26T16:16:35.332Z,2.55
2022-07-26T16:19:01.987Z,2.30
2022-07-26T16:21:28.748Z,2.50
2022-07-26T16:23:55.420Z,3.13
2022-07-26T16:26:23.360Z,2.20
2022-07-26T16:28:50.085Z,2.85
2022-07-26T16:31:17.100Z,2.47
2022-07-26T16:33:46.558Z,3.42
2022-07-26T16:36:14.098Z,3.22
2022-07-26T16:38:41.067Z,3.15
2022-07-26T16:41:07.903Z,2.70
2022-07-26T16:43:35.303Z,2.90
2022-07-26T16:46:02.432Z,2.80
2022-07-26T16:48:29.246Z,2.97
2022-07-26T16:50:56.392Z,2.75
2022-07-26T16:53:23.203Z,2.35
2022-07-26T16:55:51.775Z,3.08
2022-07-26T16:58:19.226Z,2.38
2022-07-26T17:00:46.684Z,2.80
2022-07-26T17:03:15.758Z,2.72
2022-07-26T17:05:43.723Z,2.90
2022-07-26T17:08:10.806Z,2.70
2022-07-26T17:10:37.883Z,2.72
2022-07-26T17:13:04.815Z,3.13
2022-07-26T17:15:31.491Z,2.80
2022-07-26T17:17:58.185Z,2.17
2022-07-26T17:20:24.963Z,2.33
2022-07-26T17:22:51.758Z,3.33
2022-07-26T17:25:18.431Z,2.70
2022-07-26T17:27:45.256Z,2.95
2022-07-26T17:30:12.508Z,2.58
2022-07-26T17:32:39.718Z,2.42
2022-07-26T17:35:07.658Z,3.03
2022-07-26T17:37:34.990Z,2.30
2022-07-26T17:40:03.568Z,1.77
2022-07-26T17:42:30.416Z,2.38
2022-07-26T17:44:57.374Z,2.58
2022-07-26T17:47:29.149Z,2.60
2022-07-26T17:50:09.065Z,2.80
2022-07-26T17:55:08.767Z,2.55
2022-07-26T17:57:35.453Z,2.10
2022-07-26T18:00:06.358Z,2.95
2022-07-26T18:02:33.514Z,2.50
2022-07-26T18:05:00.239Z,2.28
2022-07-26T18:07:27.178Z,2.65
2022-07-26T18:09:53.922Z,2.88
2022-07-26T18:12:20.712Z,2.28
2022-07-26T18:14:47.376Z,2.85
2022-07-26T18:17:14.043Z,3.03
2022-07-26T18:19:40.792Z,2.70
2022-07-26T18:22:08.185Z,2.35
2022-07-26T18:24:34.909Z,2.90
2022-07-26T18:27:01.619Z,2.53
2022-07-26T18:29:28.348Z,2.65
2022-07-26T18:31:58.512Z,2.47
2022-07-26T18:34:25.197Z,2.70
2022-07-26T18:36:51.941Z,2.75
2022-07-26T18:39:18.974Z,2.70
2022-07-26T18:41:45.647Z,2.33
2022-07-26T18:44:13.015Z,2.63
2022-07-26T18:46:39.983Z,2.70
2022-07-26T18:49:07.445Z,2.88
2022-07-26T18:51:34.242Z,2.90
2022-07-26T18:54:02.031Z,2.60
2022-07-26T18:56:29.048Z,3.05
2022-07-26T18:58:56.779Z,2.70
2022-07-26T19:01:23.546Z,2.85
2022-07-26T19:03:50.372Z,2.47
2022-07-26T19:06:17.139Z,3.42
2022-07-26T19:08:43.912Z,3.10
2022-07-26T19:11:11.138Z,3.58
2022-07-26T19:13:38.584Z,3.22
2022-07-26T19:16:05.662Z,2.80
2022-07-26T19:18:33.006Z,3.25
2022-07-26T19:20:59.661Z,4.25
2022-07-26T19:23:27.023Z,2.95
2022-07-26T19:25:53.696Z,3.05
2022-07-26T19:28:20.610Z,3.17
2022-07-26T19:30:47.321Z,2.80
2022-07-26T19:33:14.255Z,2.67
2022-07-26T19:35:40.924Z,2.75
2022-07-26T19:38:07.603Z,2.83
2022-07-26T19:43:18.543Z,3.13
2022-07-26T19:45:45.599Z,3.17
2022-07-26T19:48:14.267Z,2.92
2022-07-26T19:50:41.429Z,3.55
2022-07-26T19:53:08.487Z,3.10
2022-07-26T19:55:38.609Z,3.10
2022-07-26T19:58:05.340Z,2.95
2022-07-26T20:00:32.152Z,3.58
2022-07-26T20:02:59.031Z,3.30
2022-07-26T20:05:25.814Z,3.90
2022-07-26T20:07:52.980Z,3.22
2022-07-26T20:10:19.712Z,3.72
2022-07-26T20:12:46.447Z,3.35
2022-07-26T20:15:14.373Z,3.08
2022-07-26T20:17:41.342Z,3.88
2022-07-26T20:20:09.737Z,4.32
2022-07-26T20:22:36.922Z,4.68
2022-07-26T20:25:04.287Z,5.38
2022-07-26T20:27:31.215Z,3.80
2022-07-26T20:30:01.154Z,3.72
2022-07-26T20:32:28.197Z,3.63
2022-07-26T20:34:54.912Z,3.50
2022-07-26T20:37:21.622Z,3.78
2022-07-26T20:39:48.307Z,3.15
2022-07-26T20:42:21.819Z,3.70
2022-07-26T20:44:49.084Z,3.80
2022-07-26T20:47:15.918Z,3.63
2022-07-26T20:49:42.620Z,3.25
2022-07-26T20:52:09.462Z,3.50
2022-07-26T20:54:36.225Z,4.28
2022-07-26T20:57:04.287Z,4.40
2022-07-26T20:59:32.261Z,3.97
2022-07-26T21:01:59.027Z,4.32
2022-07-26T21:04:25.934Z,3.78
2022-07-26T21:06:53.007Z,3.50
2022-07-26T21:09:19.863Z,3.95
2022-07-26T21:11:46.863Z,3.75
2022-07-26T21:14:13.648Z,3.67
2022-07-26T21:16:40.445Z,3.70
2022-07-26T21:19:07.406Z,3.97
2022-07-26T21:21:34.676Z,4.20
2022-07-26T21:24:01.349Z,4.47
2022-07-26T21:26:28.527Z,4.07
2022-07-26T21:28:58.339Z,4.35
2022-07-26T21:31:25.177Z,4.05
2022-07-26T21:33:52.532Z,4.47
2022-07-26T21:36:19.354Z,4.25
2022-07-26T21:38:46.105Z,4.00
2022-07-26T21:41:13.421Z,3.97
2022-07-26T21:43:40.488Z,4.05
2022-07-26T21:46:12.183Z,4.13
2022-07-26T21:48:39.964Z,4.85
2022-07-26T21:51:08.038Z,3.55
2022-07-26T21:53:34.779Z,3.90
2022-07-26T21:56:01.651Z,4.50
2022-07-26T21:58:28.727Z,4.15
2022-07-26T22:01:06.200Z,4.10
2022-07-26T22:03:35.510Z,3.67
2022-07-26T22:06:02.418Z,4.03
2022-07-26T22:08:29.113Z,3.00
2022-07-26T22:10:56.375Z,4.05
2022-07-26T22:13:23.322Z,4.18
2022-07-26T22:15:50.374Z,4.50
2022-07-26T22:18:19.612Z,4.28
2022-07-26T22:20:49.811Z,3.70
2022-07-26T22:23:18.071Z,4.10
2022-07-26T22:25:45.263Z,3.47
2022-07-26T22:28:17.972Z,4.30
2022-07-26T22:30:46.041Z,4.10
2022-07-26T22:33:12.756Z,3.78
2022-07-26T22:35:39.577Z,4.65
2022-07-26T22:38:09.092Z,3.83
2022-07-26T22:40:36.395Z,3.88
2022-07-26T22:43:06.584Z,3.97
2022-07-26T22:45:33.764Z,3.92
2022-07-26T22:48:03.182Z,3.92
2022-07-26T22:50:30.547Z,4.03
2022-07-26T22:52:57.277Z,4.07
2022-07-26T22:55:24.322Z,3.90
2022-07-26T22:57:51.189Z,3.75
2022-07-26T23:00:19.937Z,3.83
2022-07-26T23:02:47.357Z,4.10
2022-07-26T23:05:15.747Z,4.10
2022-07-26T23:07:43.606Z,3.50
2022-07-26T23:10:14.768Z,3.67
2022-07-26T23:12:41.452Z,4.18
2022-07-26T23:15:10.532Z,4.13
2022-07-26T23:17:37.695Z,4.13
2022-07-26T23:20:08.883Z,3.85
2022-07-26T23:22:35.674Z,3.60
2022-07-26T23:25:02.374Z,4.05
2022-07-26T23:27:29.118Z,3.72
2022-07-26T23:29:55.786Z,4.70
2022-07-26T23:32:22.504Z,3.92
2022-07-26T23:34:49.137Z,3.80
2022-07-26T23:37:15.898Z,3.88
2022-07-26T23:39:42.713Z,3.55
2022-07-26T23:42:09.432Z,3.72
2022-07-26T23:44:36.202Z,3.70
2022-07-26T23:47:02.917Z,3.95
2022-07-26T23:49:29.943Z,3.45
2022-07-26T23:51:56.599Z,3.55
2022-07-26T23:54:23.366Z,3.95
2022-07-26T23:56:50.063Z,4.32
2022-07-26T23:59:16.973Z,3.92
